sensor_id;sensor_type;location;lat;lon;timestamp;P1;durP1;ratioP1;P2;durP2;ratioP2
47856;SDS011;33618;49.972;8.242;2023-09-30T00:01:58;6.25;;;3.10;;
47856;SDS011;33618;49.972;8.242;2023-09-30T00:04:25;8.95;;;3.40;;
47856;SDS011;33618;49.972;8.242;2023-09-30T00:06:54;5.88;;;3.17;;
47856;SDS011;33618;49.972;8.242;2023-09-30T00:09:20;6.82;;;4.03;;
47856;SDS011;33618;49.972;8.242;2023-09-30T00:11:48;6.55;;;3.80;;
47856;SDS011;33618;49.972;8.242;2023-09-30T00:14:15;7.35;;;4.40;;
47856;SDS011;33618;49.972;8.242;2023-09-30T00:16:43;6.43;;;4.20;;
47856;SDS011;33618;49.972;8.242;2023-09-30T00:19:11;11.43;;;5.15;;
47856;SDS011;33618;49.972;8.242;2023-09-30T00:21:37;10.10;;;4.95;;
47856;SDS011;33618;49.972;8.242;2023-09-30T00:24:04;8.50;;;4.68;;
47856;SDS011;33618;49.972;8.242;2023-09-30T00:26:32;8.27;;;5.05;;
47856;SDS011;33618;49.972;8.242;2023-09-30T00:28:59;8.27;;;5.25;;
47856;SDS011;33618;49.972;8.242;2023-09-30T00:31:26;7.38;;;5.43;;
47856;SDS011;33618;49.972;8.242;2023-09-30T00:33:53;6.90;;;4.40;;
47856;SDS011;33618;49.972;8.242;2023-09-30T00:36:20;6.15;;;4.55;;
47856;SDS011;33618;49.972;8.242;2023-09-30T00:38:47;6.60;;;4.95;;
47856;SDS011;33618;49.972;8.242;2023-09-30T00:41:14;6.82;;;4.53;;
47856;SDS011;33618;49.972;8.242;2023-09-30T00:43:41;8.60;;;4.72;;
47856;SDS011;33618;49.972;8.242;2023-09-30T00:46:28;8.05;;;4.18;;
47856;SDS011;33618;49.972;8.242;2023-09-30T00:48:57;7.72;;;4.05;;
47856;SDS011;33618;49.972;8.242;2023-09-30T00:51:26;8.82;;;3.97;;
47856;SDS011;33618;49.972;8.242;2023-09-30T00:53:53;9.20;;;4.50;;
47856;SDS011;33618;49.972;8.242;2023-09-30T00:56:24;11.70;;;3.97;;
47856;SDS011;33618;49.972;8.242;2023-09-30T00:58:53;8.82;;;4.07;;
47856;SDS011;33618;49.972;8.242;2023-09-30T01:01:20;6.63;;;4.20;;
47856;SDS011;33618;49.972;8.242;2023-09-30T01:03:48;8.98;;;4.05;;
47856;SDS011;33618;49.972;8.242;2023-09-30T01:06:15;8.73;;;3.70;;
47856;SDS011;33618;49.972;8.242;2023-09-30T01:08:42;9.95;;;4.32;;
47856;SDS011;33618;49.972;8.242;2023-09-30T01:11:09;7.18;;;4.03;;
47856;SDS011;33618;49.972;8.242;2023-09-30T01:13:37;7.82;;;4.15;;
47856;SDS011;33618;49.972;8.242;2023-09-30T01:16:08;8.60;;;4.20;;
47856;SDS011;33618;49.972;8.242;2023-09-30T01:18:37;6.90;;;4.15;;
47856;SDS011;33618;49.972;8.242;2023-09-30T01:21:05;4.82;;;3.83;;
47856;SDS011;33618;49.972;8.242;2023-09-30T01:23:33;7.00;;;4.15;;
47856;SDS011;33618;49.972;8.242;2023-09-30T01:26:05;7.93;;;4.00;;
47856;SDS011;33618;49.972;8.242;2023-09-30T01:28:39;8.40;;;4.30;;
47856;SDS011;33618;49.972;8.242;2023-09-30T01:31:06;8.90;;;4.40;;
47856;SDS011;33618;49.972;8.242;2023-09-30T01:33:33;8.63;;;4.47;;
47856;SDS011;33618;49.972;8.242;2023-09-30T01:36:00;11.13;;;4.22;;
47856;SDS011;33618;49.972;8.242;2023-09-30T01:38:27;11.10;;;4.60;;
47856;SDS011;33618;49.972;8.242;2023-09-30T01:40:54;12.60;;;4.53;;
47856;SDS011;33618;49.972;8.242;2023-09-30T01:43:24;13.73;;;4.40;;
47856;SDS011;33618;49.972;8.242;2023-09-30T01:45:51;12.05;;;4.28;;
47856;SDS011;33618;49.972;8.242;2023-09-30T01:48:18;9.70;;;4.47;;
47856;SDS011;33618;49.972;8.242;2023-09-30T01:50:46;11.23;;;4.43;;
47856;SDS011;33618;49.972;8.242;2023-09-30T01:53:14;12.63;;;4.82;;
47856;SDS011;33618;49.972;8.242;2023-09-30T01:55:41;10.85;;;4.43;;
47856;SDS011;33618;49.972;8.242;2023-09-30T01:58:08;10.75;;;4.80;;
47856;SDS011;33618;49.972;8.242;2023-09-30T02:00:37;9.48;;;4.47;;
47856;SDS011;33618;49.972;8.242;2023-09-30T02:03:04;9.48;;;4.80;;
47856;SDS011;33618;49.972;8.242;2023-09-30T02:05:32;9.57;;;4.90;;
47856;SDS011;33618;49.972;8.242;2023-09-30T02:07:59;11.85;;;4.95;;
47856;SDS011;33618;49.972;8.242;2023-09-30T02:10:26;10.27;;;5.00;;
47856;SDS011;33618;49.972;8.242;2023-09-30T02:12:53;13.18;;;5.00;;
47856;SDS011;33618;49.972;8.242;2023-09-30T02:15:20;11.73;;;5.00;;
47856;SDS011;33618;49.972;8.242;2023-09-30T02:17:47;13.93;;;5.22;;
47856;SDS011;33618;49.972;8.242;2023-09-30T02:20:15;8.70;;;5.05;;
47856;SDS011;33618;49.972;8.242;2023-09-30T02:22:45;9.65;;;5.05;;
47856;SDS011;33618;49.972;8.242;2023-09-30T02:25:14;11.20;;;5.00;;
47856;SDS011;33618;49.972;8.242;2023-09-30T02:27:41;10.70;;;5.75;;
47856;SDS011;33618;49.972;8.242;2023-09-30T02:30:09;7.85;;;5.00;;
47856;SDS011;33618;49.972;8.242;2023-09-30T02:32:40;11.95;;;5.53;;
47856;SDS011;33618;49.972;8.242;2023-09-30T02:35:08;7.80;;;5.63;;
47856;SDS011;33618;49.972;8.242;2023-09-30T02:37:37;9.75;;;5.82;;
47856;SDS011;33618;49.972;8.242;2023-09-30T02:40:04;10.45;;;5.25;;
47856;SDS011;33618;49.972;8.242;2023-09-30T02:42:37;10.52;;;5.65;;
47856;SDS011;33618;49.972;8.242;2023-09-30T02:45:05;10.10;;;5.90;;
47856;SDS011;33618;49.972;8.242;2023-09-30T02:47:33;11.00;;;5.80;;
47856;SDS011;33618;49.972;8.242;2023-09-30T02:50:00;11.27;;;6.75;;
47856;SDS011;33618;49.972;8.242;2023-09-30T02:52:27;12.95;;;6.47;;
47856;SDS011;33618;49.972;8.242;2023-09-30T02:54:58;13.80;;;7.00;;
47856;SDS011;33618;49.972;8.242;2023-09-30T02:57:25;13.02;;;7.22;;
47856;SDS011;33618;49.972;8.242;2023-09-30T02:59:54;11.10;;;7.10;;
47856;SDS011;33618;49.972;8.242;2023-09-30T03:02:23;12.52;;;6.75;;
47856;SDS011;33618;49.972;8.242;2023-09-30T03:04:53;12.20;;;6.75;;
47856;SDS011;33618;49.972;8.242;2023-09-30T03:07:20;13.95;;;6.57;;
47856;SDS011;33618;49.972;8.242;2023-09-30T03:09:47;14.82;;;6.68;;
47856;SDS011;33618;49.972;8.242;2023-09-30T03:12:14;15.13;;;7.03;;
47856;SDS011;33618;49.972;8.242;2023-09-30T03:14:41;14.95;;;7.28;;
47856;SDS011;33618;49.972;8.242;2023-09-30T03:17:09;14.98;;;6.50;;
47856;SDS011;33618;49.972;8.242;2023-09-30T03:19:52;13.68;;;6.28;;
47856;SDS011;33618;49.972;8.242;2023-09-30T03:22:20;11.52;;;6.55;;
47856;SDS011;33618;49.972;8.242;2023-09-30T03:24:47;11.90;;;6.85;;
47856;SDS011;33618;49.972;8.242;2023-09-30T03:27:14;11.32;;;6.80;;
47856;SDS011;33618;49.972;8.242;2023-09-30T03:29:42;14.90;;;7.05;;
47856;SDS011;33618;49.972;8.242;2023-09-30T03:32:09;11.65;;;6.85;;
47856;SDS011;33618;49.972;8.242;2023-09-30T03:34:37;14.30;;;7.15;;
47856;SDS011;33618;49.972;8.242;2023-09-30T03:37:03;14.32;;;6.70;;
47856;SDS011;33618;49.972;8.242;2023-09-30T03:39:33;13.73;;;6.70;;
47856;SDS011;33618;49.972;8.242;2023-09-30T03:42:00;12.90;;;6.97;;
47856;SDS011;33618;49.972;8.242;2023-09-30T03:44:28;15.60;;;7.00;;
47856;SDS011;33618;49.972;8.242;2023-09-30T03:46:55;11.52;;;6.35;;
47856;SDS011;33618;49.972;8.242;2023-09-30T03:49:25;12.40;;;6.50;;
47856;SDS011;33618;49.972;8.242;2023-09-30T03:51:54;14.82;;;7.05;;
47856;SDS011;33618;49.972;8.242;2023-09-30T03:54:21;12.25;;;6.15;;
47856;SDS011;33618;49.972;8.242;2023-09-30T03:56:49;11.23;;;6.50;;
47856;SDS011;33618;49.972;8.242;2023-09-30T03:59:16;10.60;;;6.55;;
47856;SDS011;33618;49.972;8.242;2023-09-30T04:01:43;11.57;;;6.65;;
47856;SDS011;33618;49.972;8.242;2023-09-30T04:04:10;11.52;;;6.30;;
47856;SDS011;33618;49.972;8.242;2023-09-30T04:06:37;12.57;;;5.93;;
47856;SDS011;33618;49.972;8.242;2023-09-30T04:09:08;11.70;;;5.45;;
47856;SDS011;33618;49.972;8.242;2023-09-30T04:11:38;8.75;;;5.53;;
47856;SDS011;33618;49.972;8.242;2023-09-30T04:14:05;14.77;;;5.97;;
47856;SDS011;33618;49.972;8.242;2023-09-30T04:16:34;10.73;;;6.00;;
47856;SDS011;33618;49.972;8.242;2023-09-30T04:19:02;15.00;;;6.55;;
47856;SDS011;33618;49.972;8.242;2023-09-30T04:21:29;12.90;;;6.38;;
47856;SDS011;33618;49.972;8.242;2023-09-30T04:24:00;11.63;;;6.72;;
47856;SDS011;33618;49.972;8.242;2023-09-30T04:26:27;13.07;;;6.90;;
47856;SDS011;33618;49.972;8.242;2023-09-30T04:28:54;9.18;;;6.38;;
47856;SDS011;33618;49.972;8.242;2023-09-30T04:31:21;13.98;;;7.38;;
47856;SDS011;33618;49.972;8.242;2023-09-30T04:33:50;14.73;;;7.40;;
47856;SDS011;33618;49.972;8.242;2023-09-30T04:36:20;14.52;;;7.38;;
47856;SDS011;33618;49.972;8.242;2023-09-30T04:38:49;11.35;;;7.30;;
47856;SDS011;33618;49.972;8.242;2023-09-30T04:41:16;10.27;;;7.40;;
47856;SDS011;33618;49.972;8.242;2023-09-30T04:43:43;12.23;;;7.82;;
47856;SDS011;33618;49.972;8.242;2023-09-30T04:46:10;11.00;;;7.78;;
47856;SDS011;33618;49.972;8.242;2023-09-30T04:48:39;11.27;;;7.50;;
47856;SDS011;33618;49.972;8.242;2023-09-30T04:51:07;11.15;;;7.22;;
47856;SDS011;33618;49.972;8.242;2023-09-30T04:53:35;9.88;;;6.95;;
47856;SDS011;33618;49.972;8.242;2023-09-30T04:56:03;10.23;;;6.80;;
47856;SDS011;33618;49.972;8.242;2023-09-30T04:58:31;11.25;;;6.95;;
47856;SDS011;33618;49.972;8.242;2023-09-30T05:00:58;12.38;;;7.15;;
47856;SDS011;33618;49.972;8.242;2023-09-30T05:03:25;11.27;;;7.07;;
47856;SDS011;33618;49.972;8.242;2023-09-30T05:05:52;8.55;;;5.13;;
47856;SDS011;33618;49.972;8.242;2023-09-30T05:08:24;15.45;;;7.43;;
47856;SDS011;33618;49.972;8.242;2023-09-30T05:10:52;15.95;;;7.20;;
47856;SDS011;33618;49.972;8.242;2023-09-30T05:13:22;10.02;;;6.97;;
47856;SDS011;33618;49.972;8.242;2023-09-30T05:15:52;11.13;;;7.45;;
47856;SDS011;33618;49.972;8.242;2023-09-30T05:18:20;13.77;;;7.43;;
47856;SDS011;33618;49.972;8.242;2023-09-30T05:20:47;12.98;;;7.38;;
47856;SDS011;33618;49.972;8.242;2023-09-30T05:23:16;12.65;;;7.53;;
47856;SDS011;33618;49.972;8.242;2023-09-30T05:25:44;16.17;;;7.50;;
47856;SDS011;33618;49.972;8.242;2023-09-30T05:28:11;9.48;;;6.95;;
47856;SDS011;33618;49.972;8.242;2023-09-30T05:30:40;12.77;;;7.25;;
47856;SDS011;33618;49.972;8.242;2023-09-30T05:33:07;14.00;;;7.82;;
47856;SDS011;33618;49.972;8.242;2023-09-30T05:35:42;13.25;;;7.20;;
47856;SDS011;33618;49.972;8.242;2023-09-30T05:38:09;12.20;;;6.88;;
47856;SDS011;33618;49.972;8.242;2023-09-30T05:40:36;14.13;;;7.05;;
47856;SDS011;33618;49.972;8.242;2023-09-30T05:43:03;15.52;;;7.43;;
47856;SDS011;33618;49.972;8.242;2023-09-30T05:45:32;9.90;;;6.75;;
47856;SDS011;33618;49.972;8.242;2023-09-30T05:48:03;9.02;;;6.00;;
47856;SDS011;33618;49.972;8.242;2023-09-30T05:50:33;10.85;;;6.53;;
47856;SDS011;33618;49.972;8.242;2023-09-30T05:53:03;10.90;;;5.57;;
47856;SDS011;33618;49.972;8.242;2023-09-30T05:55:33;11.45;;;6.65;;
47856;SDS011;33618;49.972;8.242;2023-09-30T05:57:59;13.30;;;6.95;;
47856;SDS011;33618;49.972;8.242;2023-09-30T06:00:27;11.18;;;6.90;;
47856;SDS011;33618;49.972;8.242;2023-09-30T06:02:57;14.23;;;6.90;;
47856;SDS011;33618;49.972;8.242;2023-09-30T06:05:26;10.73;;;6.88;;
47856;SDS011;33618;49.972;8.242;2023-09-30T06:07:56;12.65;;;6.78;;
47856;SDS011;33618;49.972;8.242;2023-09-30T06:10:23;13.52;;;7.25;;
47856;SDS011;33618;49.972;8.242;2023-09-30T06:12:52;11.23;;;7.07;;
47856;SDS011;33618;49.972;8.242;2023-09-30T06:15:23;12.02;;;7.18;;
47856;SDS011;33618;49.972;8.242;2023-09-30T06:17:55;15.98;;;7.28;;
47856;SDS011;33618;49.972;8.242;2023-09-30T06:20:23;15.95;;;7.15;;
47856;SDS011;33618;49.972;8.242;2023-09-30T06:22:53;13.05;;;7.15;;
47856;SDS011;33618;49.972;8.242;2023-09-30T06:25:20;16.48;;;7.53;;
47856;SDS011;33618;49.972;8.242;2023-09-30T06:27:50;14.25;;;6.85;;
47856;SDS011;33618;49.972;8.242;2023-09-30T06:30:17;12.02;;;6.90;;
47856;SDS011;33618;49.972;8.242;2023-09-30T06:32:46;12.25;;;6.43;;
47856;SDS011;33618;49.972;8.242;2023-09-30T06:35:13;11.45;;;6.35;;
47856;SDS011;33618;49.972;8.242;2023-09-30T06:37:41;13.50;;;6.90;;
47856;SDS011;33618;49.972;8.242;2023-09-30T06:40:09;10.23;;;6.80;;
47856;SDS011;33618;49.972;8.242;2023-09-30T06:42:39;16.83;;;9.57;;
47856;SDS011;33618;49.972;8.242;2023-09-30T06:45:06;19.13;;;11.57;;
47856;SDS011;33618;49.972;8.242;2023-09-30T06:47:37;21.83;;;14.85;;
47856;SDS011;33618;49.972;8.242;2023-09-30T06:50:09;20.02;;;12.65;;
47856;SDS011;33618;49.972;8.242;2023-09-30T06:52:39;17.13;;;12.35;;
47856;SDS011;33618;49.972;8.242;2023-09-30T06:55:08;22.38;;;12.63;;
47856;SDS011;33618;49.972;8.242;2023-09-30T06:57:35;11.20;;;6.55;;
47856;SDS011;33618;49.972;8.242;2023-09-30T07:00:07;18.58;;;9.55;;
47856;SDS011;33618;49.972;8.242;2023-09-30T07:02:39;11.23;;;6.05;;
47856;SDS011;33618;49.972;8.242;2023-09-30T07:05:10;12.88;;;6.32;;
47856;SDS011;33618;49.972;8.242;2023-09-30T07:07:39;14.05;;;6.00;;
47856;SDS011;33618;49.972;8.242;2023-09-30T07:10:07;16.38;;;6.40;;
47856;SDS011;33618;49.972;8.242;2023-09-30T07:12:38;11.90;;;6.43;;
47856;SDS011;33618;49.972;8.242;2023-09-30T07:15:06;13.60;;;5.70;;
47856;SDS011;33618;49.972;8.242;2023-09-30T07:17:33;12.10;;;5.82;;
47856;SDS011;33618;49.972;8.242;2023-09-30T07:20:04;16.05;;;6.47;;
47856;SDS011;33618;49.972;8.242;2023-09-30T07:22:32;15.70;;;6.90;;
47856;SDS011;33618;49.972;8.242;2023-09-30T07:25:18;17.02;;;6.88;;
47856;SDS011;33618;49.972;8.242;2023-09-30T07:27:45;12.10;;;5.88;;
47856;SDS011;33618;49.972;8.242;2023-09-30T07:30:13;12.07;;;6.63;;
47856;SDS011;33618;49.972;8.242;2023-09-30T07:32:42;12.70;;;6.53;;
47856;SDS011;33618;49.972;8.242;2023-09-30T07:35:10;11.90;;;6.68;;
47856;SDS011;33618;49.972;8.242;2023-09-30T07:37:38;15.27;;;6.95;;
47856;SDS011;33618;49.972;8.242;2023-09-30T07:40:05;16.90;;;7.35;;
47856;SDS011;33618;49.972;8.242;2023-09-30T07:42:32;15.88;;;7.13;;
47856;SDS011;33618;49.972;8.242;2023-09-30T07:45:00;9.73;;;6.80;;
47856;SDS011;33618;49.972;8.242;2023-09-30T07:47:30;20.52;;;10.65;;
47856;SDS011;33618;49.972;8.242;2023-09-30T07:49:57;23.83;;;15.57;;
47856;SDS011;33618;49.972;8.242;2023-09-30T07:52:24;17.35;;;11.13;;
47856;SDS011;33618;49.972;8.242;2023-09-30T07:54:52;13.63;;;7.05;;
47856;SDS011;33618;49.972;8.242;2023-09-30T07:57:19;11.57;;;6.70;;
47856;SDS011;33618;49.972;8.242;2023-09-30T07:59:46;21.20;;;7.20;;
47856;SDS011;33618;49.972;8.242;2023-09-30T08:02:15;15.07;;;6.15;;
47856;SDS011;33618;49.972;8.242;2023-09-30T08:04:42;15.60;;;8.40;;
47856;SDS011;33618;49.972;8.242;2023-09-30T08:07:09;17.58;;;5.93;;
47856;SDS011;33618;49.972;8.242;2023-09-30T08:09:36;14.20;;;6.43;;
47856;SDS011;33618;49.972;8.242;2023-09-30T08:12:04;14.65;;;5.75;;
47856;SDS011;33618;49.972;8.242;2023-09-30T08:14:31;15.75;;;6.55;;
47856;SDS011;33618;49.972;8.242;2023-09-30T08:16:58;12.48;;;6.32;;
47856;SDS011;33618;49.972;8.242;2023-09-30T08:19:25;24.05;;;16.13;;
47856;SDS011;33618;49.972;8.242;2023-09-30T08:21:52;13.85;;;6.20;;
47856;SDS011;33618;49.972;8.242;2023-09-30T08:24:18;9.82;;;5.93;;
47856;SDS011;33618;49.972;8.242;2023-09-30T08:26:45;14.40;;;9.25;;
47856;SDS011;33618;49.972;8.242;2023-09-30T08:29:12;14.45;;;8.10;;
47856;SDS011;33618;49.972;8.242;2023-09-30T08:31:39;15.00;;;10.48;;
47856;SDS011;33618;49.972;8.242;2023-09-30T08:34:06;15.60;;;8.02;;
47856;SDS011;33618;49.972;8.242;2023-09-30T08:36:33;14.02;;;6.07;;
47856;SDS011;33618;49.972;8.242;2023-09-30T08:38:59;15.40;;;8.25;;
47856;SDS011;33618;49.972;8.242;2023-09-30T08:41:31;11.05;;;6.43;;
47856;SDS011;33618;49.972;8.242;2023-09-30T08:44:02;20.38;;;13.30;;
47856;SDS011;33618;49.972;8.242;2023-09-30T08:46:31;12.85;;;8.15;;
47856;SDS011;33618;49.972;8.242;2023-09-30T08:49:04;8.05;;;4.07;;
47856;SDS011;33618;49.972;8.242;2023-09-30T08:51:34;7.40;;;4.57;;
47856;SDS011;33618;49.972;8.242;2023-09-30T08:54:03;8.68;;;4.47;;
47856;SDS011;33618;49.972;8.242;2023-09-30T08:56:32;11.30;;;4.70;;
47856;SDS011;33618;49.972;8.242;2023-09-30T08:59:01;8.30;;;4.72;;
47856;SDS011;33618;49.972;8.242;2023-09-30T09:01:29;8.40;;;4.85;;
47856;SDS011;33618;49.972;8.242;2023-09-30T09:03:57;12.75;;;6.45;;
47856;SDS011;33618;49.972;8.242;2023-09-30T09:06:25;8.65;;;5.13;;
47856;SDS011;33618;49.972;8.242;2023-09-30T09:08:53;7.35;;;4.80;;
47856;SDS011;33618;49.972;8.242;2023-09-30T09:11:21;9.85;;;3.95;;
47856;SDS011;33618;49.972;8.242;2023-09-30T09:13:53;11.05;;;3.60;;
47856;SDS011;33618;49.972;8.242;2023-09-30T09:16:25;9.07;;;4.15;;
47856;SDS011;33618;49.972;8.242;2023-09-30T09:18:52;7.00;;;3.67;;
47856;SDS011;33618;49.972;8.242;2023-09-30T09:21:20;7.40;;;4.10;;
47856;SDS011;33618;49.972;8.242;2023-09-30T09:23:53;8.82;;;3.63;;
47856;SDS011;33618;49.972;8.242;2023-09-30T09:26:28;12.63;;;3.60;;
47856;SDS011;33618;49.972;8.242;2023-09-30T09:29:01;7.95;;;3.95;;
47856;SDS011;33618;49.972;8.242;2023-09-30T09:31:32;6.78;;;3.78;;
47856;SDS011;33618;49.972;8.242;2023-09-30T09:34:04;8.27;;;3.80;;
47856;SDS011;33618;49.972;8.242;2023-09-30T09:36:44;6.05;;;3.58;;
47856;SDS011;33618;49.972;8.242;2023-09-30T09:39:15;7.05;;;4.10;;
47856;SDS011;33618;49.972;8.242;2023-09-30T09:41:49;7.50;;;3.30;;
47856;SDS011;33618;49.972;8.242;2023-09-30T09:44:21;9.88;;;4.07;;
47856;SDS011;33618;49.972;8.242;2023-09-30T09:46:48;5.03;;;3.53;;
47856;SDS011;33618;49.972;8.242;2023-09-30T09:49:19;6.18;;;3.40;;
47856;SDS011;33618;49.972;8.242;2023-09-30T09:51:47;8.75;;;4.30;;
47856;SDS011;33618;49.972;8.242;2023-09-30T09:54:15;6.97;;;3.50;;
47856;SDS011;33618;49.972;8.242;2023-09-30T09:56:43;6.78;;;3.58;;
47856;SDS011;33618;49.972;8.242;2023-09-30T09:59:11;6.38;;;3.80;;
47856;SDS011;33618;49.972;8.242;2023-09-30T10:01:40;6.50;;;3.90;;
47856;SDS011;33618;49.972;8.242;2023-09-30T10:04:11;6.93;;;3.80;;
47856;SDS011;33618;49.972;8.242;2023-09-30T10:06:39;4.93;;;3.90;;
47856;SDS011;33618;49.972;8.242;2023-09-30T10:09:09;5.35;;;3.78;;
47856;SDS011;33618;49.972;8.242;2023-09-30T10:11:38;5.97;;;3.35;;
47856;SDS011;33618;49.972;8.242;2023-09-30T10:14:06;7.57;;;3.65;;
47856;SDS011;33618;49.972;8.242;2023-09-30T10:19:27;8.43;;;4.20;;
47856;SDS011;33618;49.972;8.242;2023-09-30T10:24:55;7.25;;;4.07;;
47856;SDS011;33618;49.972;8.242;2023-09-30T10:35:21;6.00;;;3.67;;
47856;SDS011;33618;49.972;8.242;2023-09-30T10:40:53;6.78;;;3.40;;
47856;SDS011;33618;49.972;8.242;2023-09-30T10:43:34;6.55;;;3.58;;
47856;SDS011;33618;49.972;8.242;2023-09-30T10:46:29;5.93;;;3.42;;
47856;SDS011;33618;49.972;8.242;2023-09-30T10:48:53;6.78;;;3.85;;
47856;SDS011;33618;49.972;8.242;2023-09-30T10:51:20;5.38;;;3.20;;
47856;SDS011;33618;49.972;8.242;2023-09-30T10:53:52;4.90;;;3.33;;
47856;SDS011;33618;49.972;8.242;2023-09-30T10:56:23;5.40;;;3.25;;
47856;SDS011;33618;49.972;8.242;2023-09-30T10:58:58;3.90;;;3.07;;
47856;SDS011;33618;49.972;8.242;2023-09-30T11:01:32;4.72;;;2.92;;
47856;SDS011;33618;49.972;8.242;2023-09-30T11:04:04;4.95;;;3.03;;
47856;SDS011;33618;49.972;8.242;2023-09-30T11:06:32;4.93;;;2.97;;
47856;SDS011;33618;49.972;8.242;2023-09-30T11:09:01;4.68;;;2.90;;
47856;SDS011;33618;49.972;8.242;2023-09-30T11:11:35;4.22;;;2.45;;
47856;SDS011;33618;49.972;8.242;2023-09-30T11:16:57;5.30;;;3.65;;
47856;SDS011;33618;49.972;8.242;2023-09-30T11:19:26;6.75;;;2.92;;
47856;SDS011;33618;49.972;8.242;2023-09-30T11:21:54;4.20;;;2.75;;
47856;SDS011;33618;49.972;8.242;2023-09-30T11:24:22;4.25;;;2.83;;
47856;SDS011;33618;49.972;8.242;2023-09-30T11:26:52;3.45;;;2.80;;
47856;SDS011;33618;49.972;8.242;2023-09-30T11:29:20;6.30;;;3.10;;
47856;SDS011;33618;49.972;8.242;2023-09-30T11:31:48;6.88;;;3.00;;
47856;SDS011;33618;49.972;8.242;2023-09-30T11:34:17;5.57;;;2.80;;
47856;SDS011;33618;49.972;8.242;2023-09-30T11:36:49;6.25;;;2.80;;
47856;SDS011;33618;49.972;8.242;2023-09-30T11:41:51;4.68;;;2.92;;
47856;SDS011;33618;49.972;8.242;2023-09-30T11:44:19;4.95;;;3.22;;
47856;SDS011;33618;49.972;8.242;2023-09-30T11:49:36;5.22;;;3.20;;
47856;SDS011;33618;49.972;8.242;2023-09-30T11:52:08;4.90;;;3.17;;
47856;SDS011;33618;49.972;8.242;2023-09-30T11:54:40;4.70;;;3.28;;
47856;SDS011;33618;49.972;8.242;2023-09-30T11:57:15;7.05;;;3.30;;
47856;SDS011;33618;49.972;8.242;2023-09-30T11:59:43;4.70;;;2.80;;
47856;SDS011;33618;49.972;8.242;2023-09-30T12:02:12;4.90;;;3.15;;
47856;SDS011;33618;49.972;8.242;2023-09-30T12:04:42;5.25;;;3.20;;
47856;SDS011;33618;49.972;8.242;2023-09-30T12:07:10;5.82;;;3.20;;
47856;SDS011;33618;49.972;8.242;2023-09-30T12:09:37;4.40;;;3.38;;
47856;SDS011;33618;49.972;8.242;2023-09-30T12:12:06;6.97;;;3.40;;
47856;SDS011;33618;49.972;8.242;2023-09-30T12:14:38;4.25;;;3.22;;
47856;SDS011;33618;49.972;8.242;2023-09-30T12:17:05;4.47;;;3.10;;
47856;SDS011;33618;49.972;8.242;2023-09-30T12:19:37;6.07;;;3.30;;
47856;SDS011;33618;49.972;8.242;2023-09-30T12:22:04;4.82;;;3.45;;
47856;SDS011;33618;49.972;8.242;2023-09-30T12:24:33;4.70;;;3.30;;
47856;SDS011;33618;49.972;8.242;2023-09-30T12:27:00;4.15;;;3.40;;
47856;SDS011;33618;49.972;8.242;2023-09-30T12:29:26;5.57;;;3.15;;
47856;SDS011;33618;49.972;8.242;2023-09-30T12:31:53;6.25;;;3.58;;
47856;SDS011;33618;49.972;8.242;2023-09-30T12:34:21;4.90;;;3.60;;
47856;SDS011;33618;49.972;8.242;2023-09-30T12:36:54;5.82;;;3.10;;
47856;SDS011;33618;49.972;8.242;2023-09-30T12:39:23;5.38;;;3.35;;
47856;SDS011;33618;49.972;8.242;2023-09-30T12:41:52;4.20;;;3.30;;
47856;SDS011;33618;49.972;8.242;2023-09-30T12:44:20;4.22;;;3.33;;
47856;SDS011;33618;49.972;8.242;2023-09-30T12:46:47;4.95;;;3.10;;
47856;SDS011;33618;49.972;8.242;2023-09-30T12:49:14;4.07;;;2.88;;
47856;SDS011;33618;49.972;8.242;2023-09-30T12:51:41;3.63;;;2.92;;
47856;SDS011;33618;49.972;8.242;2023-09-30T12:54:09;4.30;;;3.00;;
47856;SDS011;33618;49.972;8.242;2023-09-30T12:56:37;5.70;;;3.45;;
47856;SDS011;33618;49.972;8.242;2023-09-30T12:59:04;3.42;;;2.75;;
47856;SDS011;33618;49.972;8.242;2023-09-30T13:01:31;5.45;;;3.08;;
47856;SDS011;33618;49.972;8.242;2023-09-30T13:04:01;4.07;;;3.30;;
47856;SDS011;33618;49.972;8.242;2023-09-30T13:06:29;4.65;;;2.78;;
47856;SDS011;33618;49.972;8.242;2023-09-30T13:08:59;3.40;;;3.10;;
47856;SDS011;33618;49.972;8.242;2023-09-30T13:11:26;4.25;;;3.15;;
47856;SDS011;33618;49.972;8.242;2023-09-30T13:13:54;4.45;;;3.20;;
47856;SDS011;33618;49.972;8.242;2023-09-30T13:16:21;4.43;;;3.17;;
47856;SDS011;33618;49.972;8.242;2023-09-30T13:18:48;3.80;;;3.08;;
47856;SDS011;33618;49.972;8.242;2023-09-30T13:21:19;3.60;;;2.90;;
47856;SDS011;33618;49.972;8.242;2023-09-30T13:23:46;4.00;;;3.30;;
47856;SDS011;33618;49.972;8.242;2023-09-30T13:26:13;5.68;;;3.00;;
47856;SDS011;33618;49.972;8.242;2023-09-30T13:28:39;5.18;;;3.30;;
47856;SDS011;33618;49.972;8.242;2023-09-30T13:31:06;3.83;;;2.90;;
47856;SDS011;33618;49.972;8.242;2023-09-30T13:33:33;4.47;;;3.13;;
47856;SDS011;33618;49.972;8.242;2023-09-30T13:36:00;3.50;;;3.05;;
47856;SDS011;33618;49.972;8.242;2023-09-30T13:38:29;5.03;;;3.08;;
47856;SDS011;33618;49.972;8.242;2023-09-30T13:40:56;4.82;;;3.15;;
47856;SDS011;33618;49.972;8.242;2023-09-30T13:43:22;4.45;;;3.33;;
47856;SDS011;33618;49.972;8.242;2023-09-30T13:45:49;4.93;;;3.28;;
47856;SDS011;33618;49.972;8.242;2023-09-30T13:48:17;5.45;;;3.40;;
47856;SDS011;33618;49.972;8.242;2023-09-30T13:50:44;4.32;;;3.20;;
47856;SDS011;33618;49.972;8.242;2023-09-30T13:53:11;3.88;;;3.25;;
47856;SDS011;33618;49.972;8.242;2023-09-30T13:55:38;4.07;;;3.10;;
47856;SDS011;33618;49.972;8.242;2023-09-30T13:58:05;4.93;;;3.00;;
47856;SDS011;33618;49.972;8.242;2023-09-30T14:00:32;3.72;;;3.20;;
47856;SDS011;33618;49.972;8.242;2023-09-30T14:03:00;3.97;;;3.08;;
47856;SDS011;33618;49.972;8.242;2023-09-30T14:05:27;4.47;;;3.22;;
47856;SDS011;33618;49.972;8.242;2023-09-30T14:07:54;4.00;;;3.15;;
47856;SDS011;33618;49.972;8.242;2023-09-30T14:10:21;5.07;;;3.15;;
47856;SDS011;33618;49.972;8.242;2023-09-30T14:12:48;4.30;;;3.10;;
47856;SDS011;33618;49.972;8.242;2023-09-30T14:15:15;3.20;;;2.90;;
47856;SDS011;33618;49.972;8.242;2023-09-30T14:17:42;4.22;;;2.80;;
47856;SDS011;33618;49.972;8.242;2023-09-30T14:20:11;9.40;;;3.50;;
47856;SDS011;33618;49.972;8.242;2023-09-30T14:22:38;4.07;;;3.33;;
47856;SDS011;33618;49.972;8.242;2023-09-30T14:25:05;5.53;;;3.63;;
47856;SDS011;33618;49.972;8.242;2023-09-30T14:27:34;7.78;;;3.92;;
47856;SDS011;33618;49.972;8.242;2023-09-30T14:30:00;5.63;;;4.60;;
47856;SDS011;33618;49.972;8.242;2023-09-30T14:32:27;5.68;;;3.30;;
47856;SDS011;33618;49.972;8.242;2023-09-30T14:34:55;4.22;;;3.53;;
47856;SDS011;33618;49.972;8.242;2023-09-30T14:37:22;4.90;;;4.15;;
47856;SDS011;33618;49.972;8.242;2023-09-30T14:39:49;5.32;;;3.80;;
47856;SDS011;33618;49.972;8.242;2023-09-30T14:42:16;5.25;;;3.65;;
47856;SDS011;33618;49.972;8.242;2023-09-30T14:44:43;4.20;;;3.53;;
47856;SDS011;33618;49.972;8.242;2023-09-30T14:47:10;5.95;;;3.67;;
47856;SDS011;33618;49.972;8.242;2023-09-30T14:49:37;7.40;;;3.40;;
47856;SDS011;33618;49.972;8.242;2023-09-30T14:52:03;4.55;;;3.55;;
47856;SDS011;33618;49.972;8.242;2023-09-30T14:54:31;5.20;;;3.70;;
47856;SDS011;33618;49.972;8.242;2023-09-30T14:56:58;7.80;;;5.03;;
47856;SDS011;33618;49.972;8.242;2023-09-30T14:59:25;5.57;;;4.75;;
47856;SDS011;33618;49.972;8.242;2023-09-30T15:01:52;5.10;;;3.83;;
47856;SDS011;33618;49.972;8.242;2023-09-30T15:04:19;5.65;;;4.00;;
47856;SDS011;33618;49.972;8.242;2023-09-30T15:06:46;4.90;;;3.65;;
47856;SDS011;33618;49.972;8.242;2023-09-30T15:09:13;5.03;;;3.40;;
47856;SDS011;33618;49.972;8.242;2023-09-30T15:11:40;8.25;;;4.78;;
47856;SDS011;33618;49.972;8.242;2023-09-30T15:14:07;5.53;;;3.90;;